sensor_id;sensor_type;location;lat;lon;timestamp;P1;durP1;ratioP1;P2;durP2;ratioP2
20283;SDS011;10301;50.832;4.080;2022-07-09T00:02:25;5.40;;;2.90;;
20283;SDS011;10301;50.832;4.080;2022-07-09T00:04:50;5.28;;;2.90;;
20283;SDS011;10301;50.832;4.080;2022-07-09T00:07:16;6.78;;;2.95;;
20283;SDS011;10301;50.832;4.080;2022-07-09T00:09:42;6.30;;;3.20;;
20283;SDS011;10301;50.832;4.080;2022-07-09T00:12:08;6.20;;;3.10;;
20283;SDS011;10301;50.832;4.080;2022-07-09T00:14:34;6.47;;;3.40;;
20283;SDS011;10301;50.832;4.080;2022-07-09T00:16:59;6.65;;;3.13;;
20283;SDS011;10301;50.832;4.080;2022-07-09T00:19:25;6.22;;;3.50;;
20283;SDS011;10301;50.832;4.080;2022-07-09T00:21:51;6.35;;;3.42;;
20283;SDS011;10301;50.832;4.080;2022-07-09T00:24:17;8.77;;;3.45;;
20283;SDS011;10301;50.832;4.080;2022-07-09T00:26:43;8.70;;;3.67;;
20283;SDS011;10301;50.832;4.080;2022-07-09T00:29:09;8.88;;;4.78;;
20283;SDS011;10301;50.832;4.080;2022-07-09T00:31:35;8.77;;;4.32;;
20283;SDS011;10301;50.832;4.080;2022-07-09T00:34:00;7.00;;;3.63;;
20283;SDS011;10301;50.832;4.080;2022-07-09T00:36:26;5.50;;;2.30;;
20283;SDS011;10301;50.832;4.080;2022-07-09T00:38:52;7.55;;;2.65;;
20283;SDS011;10301;50.832;4.080;2022-07-09T00:41:17;5.30;;;2.38;;
20283;SDS011;10301;50.832;4.080;2022-07-09T00:43:46;7.85;;;2.90;;
20283;SDS011;10301;50.832;4.080;2022-07-09T00:46:13;10.65;;;3.88;;
20283;SDS011;10301;50.832;4.080;2022-07-09T00:48:40;6.55;;;4.25;;
20283;SDS011;10301;50.832;4.080;2022-07-09T00:51:06;6.85;;;3.65;;
20283;SDS011;10301;50.832;4.080;2022-07-09T00:53:32;6.68;;;2.25;;
20283;SDS011;10301;50.832;4.080;2022-07-09T00:55:58;5.70;;;2.85;;
20283;SDS011;10301;50.832;4.080;2022-07-09T00:58:26;7.35;;;2.72;;
20283;SDS011;10301;50.832;4.080;2022-07-09T01:00:53;5.88;;;2.90;;
20283;SDS011;10301;50.832;4.080;2022-07-09T01:03:20;5.13;;;3.30;;
20283;SDS011;10301;50.832;4.080;2022-07-09T01:05:46;7.25;;;3.60;;
20283;SDS011;10301;50.832;4.080;2022-07-09T01:08:13;7.15;;;3.75;;
20283;SDS011;10301;50.832;4.080;2022-07-09T01:10:39;9.70;;;3.38;;
20283;SDS011;10301;50.832;4.080;2022-07-09T01:13:05;9.57;;;3.85;;
20283;SDS011;10301;50.832;4.080;2022-07-09T01:15:32;7.13;;;3.97;;
20283;SDS011;10301;50.832;4.080;2022-07-09T01:17:58;7.80;;;4.15;;
20283;SDS011;10301;50.832;4.080;2022-07-09T01:20:25;6.85;;;3.75;;
20283;SDS011;10301;50.832;4.080;2022-07-09T01:22:51;6.35;;;4.00;;
20283;SDS011;10301;50.832;4.080;2022-07-09T01:25:18;8.07;;;3.95;;
20283;SDS011;10301;50.832;4.080;2022-07-09T01:27:45;9.02;;;4.22;;
20283;SDS011;10301;50.832;4.080;2022-07-09T01:30:22;9.30;;;4.00;;
20283;SDS011;10301;50.832;4.080;2022-07-09T01:32:48;7.18;;;4.50;;
20283;SDS011;10301;50.832;4.080;2022-07-09T01:35:14;7.45;;;4.38;;
20283;SDS011;10301;50.832;4.080;2022-07-09T01:37:40;7.63;;;4.10;;
20283;SDS011;10301;50.832;4.080;2022-07-09T01:40:05;8.85;;;4.60;;
20283;SDS011;10301;50.832;4.080;2022-07-09T01:42:32;10.18;;;4.57;;
20283;SDS011;10301;50.832;4.080;2022-07-09T01:44:57;6.38;;;4.10;;
20283;SDS011;10301;50.832;4.080;2022-07-09T01:47:23;9.23;;;4.40;;
20283;SDS011;10301;50.832;4.080;2022-07-09T01:49:48;10.05;;;4.50;;
20283;SDS011;10301;50.832;4.080;2022-07-09T01:52:14;10.75;;;5.38;;
20283;SDS011;10301;50.832;4.080;2022-07-09T01:54:40;8.30;;;4.85;;
20283;SDS011;10301;50.832;4.080;2022-07-09T01:57:05;8.80;;;4.75;;
20283;SDS011;10301;50.832;4.080;2022-07-09T01:59:31;8.82;;;4.38;;
20283;SDS011;10301;50.832;4.080;2022-07-09T02:01:56;7.13;;;3.80;;
20283;SDS011;10301;50.832;4.080;2022-07-09T02:04:22;7.65;;;3.58;;
20283;SDS011;10301;50.832;4.080;2022-07-09T02:06:48;7.88;;;3.92;;
20283;SDS011;10301;50.832;4.080;2022-07-09T02:09:13;9.10;;;3.55;;
20283;SDS011;10301;50.832;4.080;2022-07-09T02:11:39;6.53;;;4.13;;
20283;SDS011;10301;50.832;4.080;2022-07-09T02:14:05;9.45;;;4.70;;
20283;SDS011;10301;50.832;4.080;2022-07-09T02:16:30;7.90;;;4.72;;
20283;SDS011;10301;50.832;4.080;2022-07-09T02:18:56;7.78;;;4.50;;
20283;SDS011;10301;50.832;4.080;2022-07-09T02:21:21;7.43;;;4.80;;
20283;SDS011;10301;50.832;4.080;2022-07-09T02:23:47;11.15;;;4.32;;
20283;SDS011;10301;50.832;4.080;2022-07-09T02:26:14;6.00;;;3.50;;
20283;SDS011;10301;50.832;4.080;2022-07-09T02:28:40;7.32;;;4.55;;
20283;SDS011;10301;50.832;4.080;2022-07-09T02:31:06;6.97;;;4.80;;
20283;SDS011;10301;50.832;4.080;2022-07-09T02:33:32;7.43;;;5.00;;
20283;SDS011;10301;50.832;4.080;2022-07-09T02:35:58;10.63;;;5.22;;
20283;SDS011;10301;50.832;4.080;2022-07-09T02:38:24;7.70;;;5.20;;
20283;SDS011;10301;50.832;4.080;2022-07-09T02:40:49;8.80;;;5.47;;
20283;SDS011;10301;50.832;4.080;2022-07-09T02:43:15;7.53;;;5.07;;
20283;SDS011;10301;50.832;4.080;2022-07-09T02:45:40;10.10;;;5.13;;
20283;SDS011;10301;50.832;4.080;2022-07-09T02:48:06;8.68;;;5.10;;
20283;SDS011;10301;50.832;4.080;2022-07-09T02:50:32;8.63;;;5.32;;
20283;SDS011;10301;50.832;4.080;2022-07-09T02:52:58;9.02;;;6.80;;
20283;SDS011;10301;50.832;4.080;2022-07-09T02:55:23;11.75;;;6.65;;
20283;SDS011;10301;50.832;4.080;2022-07-09T02:57:49;10.82;;;6.50;;
20283;SDS011;10301;50.832;4.080;2022-07-09T03:00:14;12.05;;;6.70;;
20283;SDS011;10301;50.832;4.080;2022-07-09T03:02:40;10.80;;;6.90;;
20283;SDS011;10301;50.832;4.080;2022-07-09T03:05:06;9.50;;;6.78;;
20283;SDS011;10301;50.832;4.080;2022-07-09T03:07:32;9.40;;;6.47;;
20283;SDS011;10301;50.832;4.080;2022-07-09T03:09:57;13.07;;;7.63;;
20283;SDS011;10301;50.832;4.080;2022-07-09T03:12:23;9.88;;;7.50;;
20283;SDS011;10301;50.832;4.080;2022-07-09T03:14:48;12.93;;;7.68;;
20283;SDS011;10301;50.832;4.080;2022-07-09T03:17:14;14.25;;;7.68;;
20283;SDS011;10301;50.832;4.080;2022-07-09T03:19:40;10.73;;;7.10;;
20283;SDS011;10301;50.832;4.080;2022-07-09T03:22:05;10.48;;;6.22;;
20283;SDS011;10301;50.832;4.080;2022-07-09T03:24:31;11.50;;;6.88;;
20283;SDS011;10301;50.832;4.080;2022-07-09T03:26:57;14.30;;;7.57;;
20283;SDS011;10301;50.832;4.080;2022-07-09T03:29:22;16.50;;;7.90;;
20283;SDS011;10301;50.832;4.080;2022-07-09T03:31:48;10.73;;;7.78;;
20283;SDS011;10301;50.832;4.080;2022-07-09T03:34:14;12.43;;;7.57;;
20283;SDS011;10301;50.832;4.080;2022-07-09T03:36:40;15.93;;;8.52;;
20283;SDS011;10301;50.832;4.080;2022-07-09T03:39:06;13.15;;;9.25;;
20283;SDS011;10301;50.832;4.080;2022-07-09T03:41:32;17.70;;;9.65;;
20283;SDS011;10301;50.832;4.080;2022-07-09T03:43:57;16.02;;;11.15;;
20283;SDS011;10301;50.832;4.080;2022-07-09T03:46:23;13.90;;;9.00;;
20283;SDS011;10301;50.832;4.080;2022-07-09T03:48:49;17.40;;;11.15;;
20283;SDS011;10301;50.832;4.080;2022-07-09T03:51:15;15.85;;;10.98;;
20283;SDS011;10301;50.832;4.080;2022-07-09T03:53:40;16.05;;;12.60;;
20283;SDS011;10301;50.832;4.080;2022-07-09T03:56:06;16.20;;;13.18;;
20283;SDS011;10301;50.832;4.080;2022-07-09T03:58:32;19.75;;;13.60;;
20283;SDS011;10301;50.832;4.080;2022-07-09T04:00:58;15.02;;;12.68;;
20283;SDS011;10301;50.832;4.080;2022-07-09T04:03:23;19.88;;;11.88;;
20283;SDS011;10301;50.832;4.080;2022-07-09T04:05:49;15.40;;;12.00;;
20283;SDS011;10301;50.832;4.080;2022-07-09T04:08:15;19.88;;;13.18;;
20283;SDS011;10301;50.832;4.080;2022-07-09T04:10:40;17.15;;;12.50;;
20283;SDS011;10301;50.832;4.080;2022-07-09T04:13:06;17.45;;;12.82;;
20283;SDS011;10301;50.832;4.080;2022-07-09T04:15:32;17.40;;;13.32;;
20283;SDS011;10301;50.832;4.080;2022-07-09T04:17:57;19.00;;;13.38;;
20283;SDS011;10301;50.832;4.080;2022-07-09T04:20:23;18.30;;;12.88;;
20283;SDS011;10301;50.832;4.080;2022-07-09T04:22:50;19.77;;;13.68;;
20283;SDS011;10301;50.832;4.080;2022-07-09T04:25:16;15.23;;;12.13;;
20283;SDS011;10301;50.832;4.080;2022-07-09T04:27:42;15.93;;;11.85;;
20283;SDS011;10301;50.832;4.080;2022-07-09T04:30:09;16.60;;;11.85;;
20283;SDS011;10301;50.832;4.080;2022-07-09T04:32:35;16.88;;;12.75;;
20283;SDS011;10301;50.832;4.080;2022-07-09T04:35:01;15.10;;;11.75;;
20283;SDS011;10301;50.832;4.080;2022-07-09T04:37:27;14.65;;;11.27;;
20283;SDS011;10301;50.832;4.080;2022-07-09T04:39:53;19.30;;;12.50;;
20283;SDS011;10301;50.832;4.080;2022-07-09T04:42:18;17.23;;;12.77;;
20283;SDS011;10301;50.832;4.080;2022-07-09T04:44:45;16.10;;;12.43;;
20283;SDS011;10301;50.832;4.080;2022-07-09T04:47:11;17.65;;;13.05;;
20283;SDS011;10301;50.832;4.080;2022-07-09T04:49:36;16.42;;;12.98;;
20283;SDS011;10301;50.832;4.080;2022-07-09T04:52:02;17.38;;;12.70;;
20283;SDS011;10301;50.832;4.080;2022-07-09T04:54:28;21.90;;;12.85;;
20283;SDS011;10301;50.832;4.080;2022-07-09T04:56:54;15.02;;;12.93;;
20283;SDS011;10301;50.832;4.080;2022-07-09T04:59:19;16.90;;;12.20;;
20283;SDS011;10301;50.832;4.080;2022-07-09T05:01:45;19.48;;;12.48;;
20283;SDS011;10301;50.832;4.080;2022-07-09T05:04:11;15.45;;;11.93;;
20283;SDS011;10301;50.832;4.080;2022-07-09T05:06:37;17.20;;;12.23;;
20283;SDS011;10301;50.832;4.080;2022-07-09T05:09:02;16.45;;;12.15;;
20283;SDS011;10301;50.832;4.080;2022-07-09T05:11:28;16.85;;;12.13;;
20283;SDS011;10301;50.832;4.080;2022-07-09T05:13:55;15.65;;;10.85;;
20283;SDS011;10301;50.832;4.080;2022-07-09T05:16:21;14.10;;;10.40;;
20283;SDS011;10301;50.832;4.080;2022-07-09T05:18:47;12.55;;;10.50;;
20283;SDS011;10301;50.832;4.080;2022-07-09T05:21:12;17.85;;;10.82;;
20283;SDS011;10301;50.832;4.080;2022-07-09T05:23:38;14.25;;;11.43;;
20283;SDS011;10301;50.832;4.080;2022-07-09T05:26:04;17.38;;;11.77;;
20283;SDS011;10301;50.832;4.080;2022-07-09T05:28:29;15.18;;;11.98;;
20283;SDS011;10301;50.832;4.080;2022-07-09T05:30:55;14.52;;;11.50;;
20283;SDS011;10301;50.832;4.080;2022-07-09T05:33:21;14.90;;;11.93;;
20283;SDS011;10301;50.832;4.080;2022-07-09T05:35:46;14.50;;;11.25;;
20283;SDS011;10301;50.832;4.080;2022-07-09T05:38:12;14.23;;;10.38;;
20283;SDS011;10301;50.832;4.080;2022-07-09T05:40:38;16.63;;;11.02;;
20283;SDS011;10301;50.832;4.080;2022-07-09T05:43:03;15.25;;;10.80;;
20283;SDS011;10301;50.832;4.080;2022-07-09T05:45:29;14.70;;;11.00;;
20283;SDS011;10301;50.832;4.080;2022-07-09T05:47:54;14.73;;;11.10;;
20283;SDS011;10301;50.832;4.080;2022-07-09T05:50:20;16.00;;;11.10;;
20283;SDS011;10301;50.832;4.080;2022-07-09T05:52:46;13.40;;;11.05;;
20283;SDS011;10301;50.832;4.080;2022-07-09T05:55:12;16.52;;;10.40;;
20283;SDS011;10301;50.832;4.080;2022-07-09T05:57:39;16.73;;;10.95;;
20283;SDS011;10301;50.832;4.080;2022-07-09T06:00:05;13.45;;;10.65;;
20283;SDS011;10301;50.832;4.080;2022-07-09T06:02:32;13.15;;;10.38;;
20283;SDS011;10301;50.832;4.080;2022-07-09T06:04:58;15.18;;;10.60;;
20283;SDS011;10301;50.832;4.080;2022-07-09T06:07:23;15.07;;;9.15;;
20283;SDS011;10301;50.832;4.080;2022-07-09T06:09:49;14.10;;;9.52;;
20283;SDS011;10301;50.832;4.080;2022-07-09T06:12:15;13.55;;;8.90;;
20283;SDS011;10301;50.832;4.080;2022-07-09T06:14:40;14.55;;;9.20;;
20283;SDS011;10301;50.832;4.080;2022-07-09T06:17:06;10.52;;;8.52;;
20283;SDS011;10301;50.832;4.080;2022-07-09T06:19:35;13.68;;;9.00;;
20283;SDS011;10301;50.832;4.080;2022-07-09T06:22:02;14.50;;;7.70;;
20283;SDS011;10301;50.832;4.080;2022-07-09T06:24:28;11.73;;;7.18;;
20283;SDS011;10301;50.832;4.080;2022-07-09T06:26:57;13.85;;;7.60;;
20283;SDS011;10301;50.832;4.080;2022-07-09T06:29:22;10.95;;;7.05;;
20283;SDS011;10301;50.832;4.080;2022-07-09T06:31:48;13.00;;;7.32;;
20283;SDS011;10301;50.832;4.080;2022-07-09T06:34:14;10.68;;;7.03;;
20283;SDS011;10301;50.832;4.080;2022-07-09T06:36:39;11.43;;;7.28;;
20283;SDS011;10301;50.832;4.080;2022-07-09T06:39:06;11.10;;;7.10;;
20283;SDS011;10301;50.832;4.080;2022-07-09T06:41:50;12.70;;;7.80;;
20283;SDS011;10301;50.832;4.080;2022-07-09T06:44:16;12.80;;;7.32;;
20283;SDS011;10301;50.832;4.080;2022-07-09T06:46:42;12.35;;;8.02;;
20283;SDS011;10301;50.832;4.080;2022-07-09T06:49:07;11.00;;;7.93;;
20283;SDS011;10301;50.832;4.080;2022-07-09T06:51:33;11.57;;;7.40;;
20283;SDS011;10301;50.832;4.080;2022-07-09T06:53:58;9.63;;;7.78;;
20283;SDS011;10301;50.832;4.080;2022-07-09T06:56:24;13.32;;;7.20;;
20283;SDS011;10301;50.832;4.080;2022-07-09T06:58:50;12.27;;;7.10;;
20283;SDS011;10301;50.832;4.080;2022-07-09T07:01:15;11.10;;;7.70;;
20283;SDS011;10301;50.832;4.080;2022-07-09T07:03:41;11.43;;;8.15;;
20283;SDS011;10301;50.832;4.080;2022-07-09T07:06:06;14.32;;;8.18;;
20283;SDS011;10301;50.832;4.080;2022-07-09T07:08:32;12.55;;;8.38;;
20283;SDS011;10301;50.832;4.080;2022-07-09T07:10:58;12.10;;;8.38;;
20283;SDS011;10301;50.832;4.080;2022-07-09T07:13:24;11.73;;;8.35;;
20283;SDS011;10301;50.832;4.080;2022-07-09T07:15:50;12.23;;;7.90;;
20283;SDS011;10301;50.832;4.080;2022-07-09T07:18:15;11.73;;;7.25;;
20283;SDS011;10301;50.832;4.080;2022-07-09T07:20:45;12.60;;;7.30;;
20283;SDS011;10301;50.832;4.080;2022-07-09T07:23:10;12.73;;;6.93;;
20283;SDS011;10301;50.832;4.080;2022-07-09T07:25:36;14.05;;;6.85;;
20283;SDS011;10301;50.832;4.080;2022-07-09T07:28:02;11.05;;;6.30;;
20283;SDS011;10301;50.832;4.080;2022-07-09T07:30:29;10.27;;;6.40;;
20283;SDS011;10301;50.832;4.080;2022-07-09T07:32:58;12.15;;;6.70;;
20283;SDS011;10301;50.832;4.080;2022-07-09T07:35:24;11.10;;;6.20;;
20283;SDS011;10301;50.832;4.080;2022-07-09T07:37:49;8.85;;;6.63;;
20283;SDS011;10301;50.832;4.080;2022-07-09T07:40:15;11.85;;;6.82;;
20283;SDS011;10301;50.832;4.080;2022-07-09T07:42:41;14.25;;;7.25;;
20283;SDS011;10301;50.832;4.080;2022-07-09T07:45:07;14.40;;;7.15;;
20283;SDS011;10301;50.832;4.080;2022-07-09T07:47:33;13.98;;;8.70;;
20283;SDS011;10301;50.832;4.080;2022-07-09T07:49:58;13.27;;;7.00;;
20283;SDS011;10301;50.832;4.080;2022-07-09T07:52:25;12.30;;;7.32;;
20283;SDS011;10301;50.832;4.080;2022-07-09T07:54:50;14.40;;;8.77;;
20283;SDS011;10301;50.832;4.080;2022-07-09T07:57:16;10.07;;;8.00;;
20283;SDS011;10301;50.832;4.080;2022-07-09T07:59:41;13.52;;;8.43;;
20283;SDS011;10301;50.832;4.080;2022-07-09T08:02:07;12.05;;;8.25;;
20283;SDS011;10301;50.832;4.080;2022-07-09T08:04:33;13.27;;;7.55;;
20283;SDS011;10301;50.832;4.080;2022-07-09T08:06:58;9.52;;;7.47;;
20283;SDS011;10301;50.832;4.080;2022-07-09T08:09:24;8.98;;;6.65;;
20283;SDS011;10301;50.832;4.080;2022-07-09T08:11:49;12.88;;;5.50;;
20283;SDS011;10301;50.832;4.080;2022-07-09T08:14:15;14.02;;;6.78;;
20283;SDS011;10301;50.832;4.080;2022-07-09T08:16:41;10.25;;;6.28;;
20283;SDS011;10301;50.832;4.080;2022-07-09T08:19:06;11.90;;;6.97;;
20283;SDS011;10301;50.832;4.080;2022-07-09T08:21:32;13.60;;;8.63;;
20283;SDS011;10301;50.832;4.080;2022-07-09T08:23:57;13.73;;;9.73;;
20283;SDS011;10301;50.832;4.080;2022-07-09T08:26:25;12.35;;;9.15;;
20283;SDS011;10301;50.832;4.080;2022-07-09T08:28:52;18.98;;;11.10;;
20283;SDS011;10301;50.832;4.080;2022-07-09T08:31:19;16.30;;;11.25;;
20283;SDS011;10301;50.832;4.080;2022-07-09T08:33:45;17.98;;;11.95;;
20283;SDS011;10301;50.832;4.080;2022-07-09T08:36:11;18.13;;;13.20;;
20283;SDS011;10301;50.832;4.080;2022-07-09T08:38:37;16.27;;;11.80;;
20283;SDS011;10301;50.832;4.080;2022-07-09T08:41:04;18.83;;;13.13;;
20283;SDS011;10301;50.832;4.080;2022-07-09T08:43:35;18.05;;;12.30;;
20283;SDS011;10301;50.832;4.080;2022-07-09T08:46:03;15.52;;;13.02;;
20283;SDS011;10301;50.832;4.080;2022-07-09T08:48:32;19.92;;;13.30;;
20283;SDS011;10301;50.832;4.080;2022-07-09T08:50:58;17.55;;;13.65;;
20283;SDS011;10301;50.832;4.080;2022-07-09T08:53:24;16.50;;;13.27;;
20283;SDS011;10301;50.832;4.080;2022-07-09T08:55:52;20.88;;;15.05;;
20283;SDS011;10301;50.832;4.080;2022-07-09T08:58:19;18.45;;;14.63;;
20283;SDS011;10301;50.832;4.080;2022-07-09T09:00:44;25.67;;;18.58;;
20283;SDS011;10301;50.832;4.080;2022-07-09T09:03:12;26.92;;;23.17;;
20283;SDS011;10301;50.832;4.080;2022-07-09T09:05:38;26.30;;;20.60;;
20283;SDS011;10301;50.832;4.080;2022-07-09T09:08:20;28.63;;;23.58;;
20283;SDS011;10301;50.832;4.080;2022-07-09T09:10:48;29.83;;;22.73;;
20283;SDS011;10301;50.832;4.080;2022-07-09T09:13:14;36.55;;;28.90;;
20283;SDS011;10301;50.832;4.080;2022-07-09T09:15:41;36.22;;;28.52;;
20283;SDS011;10301;50.832;4.080;2022-07-09T09:18:08;38.38;;;30.60;;
20283;SDS011;10301;50.832;4.080;2022-07-09T09:20:34;35.55;;;30.42;;
20283;SDS011;10301;50.832;4.080;2022-07-09T09:22:59;35.45;;;29.42;;
20283;SDS011;10301;50.832;4.080;2022-07-09T09:25:27;35.88;;;29.95;;
20283;SDS011;10301;50.832;4.080;2022-07-09T09:27:54;39.17;;;31.60;;
20283;SDS011;10301;50.832;4.080;2022-07-09T09:30:21;42.00;;;34.40;;
20283;SDS011;10301;50.832;4.080;2022-07-09T09:32:58;39.30;;;35.10;;
20283;SDS011;10301;50.832;4.080;2022-07-09T09:35:25;40.55;;;35.97;;
20283;SDS011;10301;50.832;4.080;2022-07-09T09:37:52;38.83;;;34.65;;
20283;SDS011;10301;50.832;4.080;2022-07-09T09:40:19;37.70;;;33.78;;
20283;SDS011;10301;50.832;4.080;2022-07-09T09:42:45;35.03;;;31.17;;
20283;SDS011;10301;50.832;4.080;2022-07-09T09:45:14;36.47;;;32.08;;
20283;SDS011;10301;50.832;4.080;2022-07-09T09:47:43;37.42;;;31.60;;
20283;SDS011;10301;50.832;4.080;2022-07-09T09:50:13;35.65;;;31.83;;
20283;SDS011;10301;50.832;4.080;2022-07-09T09:52:44;36.60;;;30.08;;
20283;SDS011;10301;50.832;4.080;2022-07-09T09:55:11;33.22;;;25.98;;
20283;SDS011;10301;50.832;4.080;2022-07-09T09:57:38;31.25;;;24.60;;
20283;SDS011;10301;50.832;4.080;2022-07-09T10:00:04;25.95;;;22.90;;
20283;SDS011;10301;50.832;4.080;2022-07-09T10:02:31;26.88;;;20.55;;
20283;SDS011;10301;50.832;4.080;2022-07-09T10:04:58;26.42;;;19.40;;
20283;SDS011;10301;50.832;4.080;2022-07-09T10:07:25;27.42;;;20.90;;
20283;SDS011;10301;50.832;4.080;2022-07-09T10:09:54;25.33;;;18.63;;
20283;SDS011;10301;50.832;4.080;2022-07-09T10:12:28;23.52;;;19.88;;
20283;SDS011;10301;50.832;4.080;2022-07-09T10:14:57;22.75;;;16.02;;
20283;SDS011;10301;50.832;4.080;2022-07-09T10:17:23;17.75;;;13.45;;
20283;SDS011;10301;50.832;4.080;2022-07-09T10:20:03;20.58;;;15.27;;
20283;SDS011;10301;50.832;4.080;2022-07-09T10:22:36;18.63;;;14.95;;
20283;SDS011;10301;50.832;4.080;2022-07-09T10:25:03;23.08;;;15.20;;
20283;SDS011;10301;50.832;4.080;2022-07-09T10:27:40;20.33;;;15.10;;
20283;SDS011;10301;50.832;4.080;2022-07-09T10:30:06;22.38;;;16.23;;
20283;SDS011;10301;50.832;4.080;2022-07-09T10:33:03;25.60;;;18.58;;
20283;SDS011;10301;50.832;4.080;2022-07-09T10:35:30;19.75;;;15.52;;
20283;SDS011;10301;50.832;4.080;2022-07-09T10:38:03;18.50;;;13.25;;
20283;SDS011;10301;50.832;4.080;2022-07-09T10:40:36;15.45;;;10.23;;
20283;SDS011;10301;50.832;4.080;2022-07-09T10:43:06;16.60;;;10.10;;
20283;SDS011;10301;50.832;4.080;2022-07-09T10:45:44;14.13;;;9.07;;
20283;SDS011;10301;50.832;4.080;2022-07-09T10:48:11;12.55;;;8.50;;
20283;SDS011;10301;50.832;4.080;2022-07-09T10:50:39;9.57;;;7.40;;
20283;SDS011;10301;50.832;4.080;2022-07-09T10:53:10;11.68;;;8.30;;
20283;SDS011;10301;50.832;4.080;2022-07-09T10:55:36;10.43;;;6.70;;
20283;SDS011;10301;50.832;4.080;2022-07-09T10:58:15;6.82;;;4.82;;
20283;SDS011;10301;50.832;4.080;2022-07-09T11:00:44;9.07;;;4.10;;
20283;SDS011;10301;50.832;4.080;2022-07-09T11:03:23;7.30;;;4.28;;
20283;SDS011;10301;50.832;4.080;2022-07-09T11:05:50;5.72;;;4.20;;
20283;SDS011;10301;50.832;4.080;2022-07-09T11:08:15;5.70;;;2.53;;
20283;SDS011;10301;50.832;4.080;2022-07-09T11:10:41;5.45;;;2.75;;
20283;SDS011;10301;50.832;4.080;2022-07-09T11:13:07;5.15;;;3.03;;
20283;SDS011;10301;50.832;4.080;2022-07-09T11:15:36;6.03;;;2.80;;
20283;SDS011;10301;50.832;4.080;2022-07-09T11:18:07;6.47;;;2.72;;
20283;SDS011;10301;50.832;4.080;2022-07-09T11:20:37;6.95;;;2.40;;
20283;SDS011;10301;50.832;4.080;2022-07-09T11:23:05;5.45;;;2.60;;
20283;SDS011;10301;50.832;4.080;2022-07-09T11:25:31;5.00;;;2.05;;
20283;SDS011;10301;50.832;4.080;2022-07-09T11:27:58;4.85;;;2.10;;
20283;SDS011;10301;50.832;4.080;2022-07-09T11:30:24;4.10;;;1.92;;
20283;SDS011;10301;50.832;4.080;2022-07-09T11:32:52;5.55;;;2.00;;
20283;SDS011;10301;50.832;4.080;2022-07-09T11:35:31;3.67;;;1.60;;
20283;SDS011;10301;50.832;4.080;2022-07-09T11:38:02;3.67;;;1.50;;
20283;SDS011;10301;50.832;4.080;2022-07-09T11:40:29;6.30;;;1.40;;
20283;SDS011;10301;50.832;4.080;2022-07-09T11:42:55;4.22;;;1.60;;
20283;SDS011;10301;50.832;4.080;2022-07-09T11:45:25;5.18;;;1.45;;
20283;SDS011;10301;50.832;4.080;2022-07-09T11:48:06;4.13;;;1.75;;
20283;SDS011;10301;50.832;4.080;2022-07-09T11:50:32;4.90;;;1.52;;
20283;SDS011;10301;50.832;4.080;2022-07-09T11:52:58;3.22;;;1.35;;
20283;SDS011;10301;50.832;4.080;2022-07-09T11:55:28;4.03;;;1.20;;
20283;SDS011;10301;50.832;4.080;2022-07-09T11:58:02;7.72;;;3.78;;
20283;SDS011;10301;50.832;4.080;2022-07-09T12:00:32;4.93;;;1.33;;
20283;SDS011;10301;50.832;4.080;2022-07-09T12:03:00;3.85;;;1.30;;
20283;SDS011;10301;50.832;4.080;2022-07-09T12:05:30;3.55;;;1.20;;
20283;SDS011;10301;50.832;4.080;2022-07-09T12:07:57;5.72;;;1.35;;
20283;SDS011;10301;50.832;4.080;2022-07-09T12:10:37;2.50;;;1.05;;
20283;SDS011;10301;50.832;4.080;2022-07-09T12:13:04;3.67;;;1.13;;
20283;SDS011;10301;50.832;4.080;2022-07-09T12:15:31;2.80;;;0.90;;
20283;SDS011;10301;50.832;4.080;2022-07-09T12:17:58;5.55;;;0.98;;
20283;SDS011;10301;50.832;4.080;2022-07-09T12:20:25;5.07;;;1.20;;
20283;SDS011;10301;50.832;4.080;2022-07-09T12:22:53;4.13;;;1.42;;
20283;SDS011;10301;50.832;4.080;2022-07-09T12:25:19;3.28;;;1.20;;
20283;SDS011;10301;50.832;4.080;2022-07-09T12:27:46;4.85;;;1.20;;
20283;SDS011;10301;50.832;4.080;2022-07-09T12:30:14;3.38;;;1.25;;
20283;SDS011;10301;50.832;4.080;2022-07-09T12:32:40;5.22;;;1.20;;
20283;SDS011;10301;50.832;4.080;2022-07-09T12:35:06;3.65;;;1.00;;
20283;SDS011;10301;50.832;4.080;2022-07-09T12:37:32;3.03;;;1.00;;
20283;SDS011;10301;50.832;4.080;2022-07-09T12:39:59;3.55;;;0.90;;
20283;SDS011;10301;50.832;4.080;2022-07-09T12:42:25;4.22;;;1.23;;
20283;SDS011;10301;50.832;4.080;2022-07-09T12:44:51;4.00;;;1.27;;
20283;SDS011;10301;50.832;4.080;2022-07-09T12:47:17;6.78;;;1.10;;
20283;SDS011;10301;50.832;4.080;2022-07-09T12:49:43;4.10;;;1.00;;
20283;SDS011;10301;50.832;4.080;2022-07-09T12:52:09;1.70;;;0.70;;
20283;SDS011;10301;50.832;4.080;2022-07-09T12:54:35;2.67;;;0.90;;
20283;SDS011;10301;50.832;4.080;2022-07-09T12:57:01;2.42;;;1.23;;
20283;SDS011;10301;50.832;4.080;2022-07-09T12:59:27;4.03;;;1.05;;
20283;SDS011;10301;50.832;4.080;2022-07-09T13:01:52;5.47;;;1.10;;
20283;SDS011;10301;50.832;4.080;2022-07-09T13:04:18;4.43;;;0.80;;
20283;SDS011;10301;50.832;4.080;2022-07-09T13:06:43;2.63;;;1.10;;
20283;SDS011;10301;50.832;4.080;2022-07-09T13:09:09;4.00;;;1.20;;
20283;SDS011;10301;50.832;4.080;2022-07-09T13:11:36;4.32;;;1.00;;
20283;SDS011;10301;50.832;4.080;2022-07-09T13:14:02;2.70;;;0.90;;
20283;SDS011;10301;50.832;4.080;2022-07-09T13:16:28;3.70;;;1.10;;
20283;SDS011;10301;50.832;4.080;2022-07-09T13:18:54;5.75;;;1.02;;
20283;SDS011;10301;50.832;4.080;2022-07-09T13:21:20;4.53;;;1.48;;
20283;SDS011;10301;50.832;4.080;2022-07-09T13:23:47;2.67;;;1.02;;
20283;SDS011;10301;50.832;4.080;2022-07-09T13:26:13;4.65;;;1.23;;
20283;SDS011;10301;50.832;4.080;2022-07-09T13:28:40;2.58;;;1.20;;
20283;SDS011;10301;50.832;4.080;2022-07-09T13:31:06;4.22;;;1.27;;
20283;SDS011;10301;50.832;4.080;2022-07-09T13:33:32;4.45;;;1.40;;
20283;SDS011;10301;50.832;4.080;2022-07-09T13:35:59;3.85;;;1.23;;
20283;SDS011;10301;50.832;4.080;2022-07-09T13:38:25;2.72;;;1.10;;
20283;SDS011;10301;50.832;4.080;2022-07-09T13:40:51;4.30;;;1.10;;
20283;SDS011;10301;50.832;4.080;2022-07-09T13:43:16;3.20;;;1.10;;
20283;SDS011;10301;50.832;4.080;2022-07-09T13:45:42;3.03;;;1.15;;
20283;SDS011;10301;50.832;4.080;2022-07-09T13:48:08;7.95;;;1.50;;
20283;SDS011;10301;50.832;4.080;2022-07-09T13:50:33;2.10;;;0.85;;
20283;SDS011;10301;50.832;4.080;2022-07-09T13:52:59;2.90;;;0.98;;
20283;SDS011;10301;50.832;4.080;2022-07-09T13:55:26;4.80;;;1.17;;
20283;SDS011;10301;50.832;4.080;2022-07-09T13:57:52;4.47;;;0.90;;
20283;SDS011;10301;50.832;4.080;2022-07-09T14:00:17;3.15;;;0.90;;
20283;SDS011;10301;50.832;4.080;2022-07-09T14:02:43;3.03;;;0.95;;
20283;SDS011;10301;50.832;4.080;2022-07-09T14:05:08;3.97;;;0.90;;
20283;SDS011;10301;50.832;4.080;2022-07-09T14:07:34;3.05;;;1.10;;
20283;SDS011;10301;50.832;4.080;2022-07-09T14:10:00;7.18;;;1.50;;
20283;SDS011;10301;50.832;4.080;2022-07-09T14:12:26;5.72;;;1.05;;
20283;SDS011;10301;50.832;4.080;2022-07-09T14:14:52;5.72;;;1.48;;
20283;SDS011;10301;50.832;4.080;2022-07-09T14:17:18;6.35;;;1.08;;
20283;SDS011;10301;50.832;4.080;2022-07-09T14:19:44;8.07;;;1.23;;
20283;SDS011;10301;50.832;4.080;2022-07-09T14:22:09;6.05;;;1.33;;
20283;SDS011;10301;50.832;4.080;2022-07-09T14:24:35;6.70;;;1.45;;
20283;SDS011;10301;50.832;4.080;2022-07-09T14:27:01;5.20;;;1.20;;
20283;SDS011;10301;50.832;4.080;2022-07-09T14:29:27;6.75;;;1.40;;
20283;SDS011;10301;50.832;4.080;2022-07-09T14:31:53;9.57;;;3.90;;
20283;SDS011;10301;50.832;4.080;2022-07-09T14:34:19;8.63;;;1.60;;